EWG41K EDDH-EGKK
Flight info
| Callsign | EWG41K |
|---|---|
| Flight time | N/A |
| Altitude | 38000 |
| Route | WSN5G/33 WSN N125 ITMIZ DCT GALSO Q63 ARREK Y4 TEBRA |
| Aircraft | A20N/M-SDE2E3FGHIRWXY/LB1 |
Departure
| Time | 2026-04-22 19:44 |
|---|---|
| Airport | Hamburg Helmut Schmidt Airport (EDDH) |
Arrival
| Time | N/A |
|---|---|
| Airport | London Gatwick Airport (EGKK) |
| Time | Latitude | Longitude | Altitude | Speed | Heading |
|---|---|---|---|---|---|
| 2026-04-22 19:18 | 53.63299 | 10.00026 | 50 ft | 0 kts | 143° |
| 2026-04-22 19:31 | 53.63304 | 10.00020 | 50 ft | 2 kts | 143° |
| 2026-04-22 19:31 | 53.63316 | 10.00005 | 49 ft | 2 kts | 143° |
| 2026-04-22 19:31 | 53.63328 | 9.99990 | 48 ft | 2 kts | 143° |
| 2026-04-22 19:32 | 53.63339 | 9.99975 | 47 ft | 2 kts | 143° |
| 2026-04-22 19:32 | 53.63351 | 9.99962 | 49 ft | 1 kts | 164° |
| 2026-04-22 19:32 | 53.63359 | 9.99959 | 47 ft | 1 kts | 179° |
| 2026-04-22 19:32 | 53.63372 | 9.99962 | 49 ft | 2 kts | 206° |
| 2026-04-22 19:33 | 53.63380 | 9.99970 | 49 ft | 0 kts | 226° |
| 2026-04-22 19:34 | 53.63370 | 9.99949 | 49 ft | 7 kts | 231° |
| 2026-04-22 19:35 | 53.63327 | 9.99858 | 50 ft | 13 kts | 232° |
| 2026-04-22 19:35 | 53.63256 | 9.99746 | 50 ft | 14 kts | 191° |
| 2026-04-22 19:35 | 53.63159 | 9.99817 | 49 ft | 17 kts | 152° |
| 2026-04-22 19:35 | 53.63063 | 9.99900 | 50 ft | 16 kts | 153° |
| 2026-04-22 19:36 | 53.62959 | 9.99987 | 49 ft | 14 kts | 154° |
| 2026-04-22 19:36 | 53.62916 | 9.99965 | 48 ft | 3 kts | 236° |
| 2026-04-22 19:36 | 53.62898 | 9.99918 | 48 ft | 0 kts | 245° |
| 2026-04-22 19:41 | 53.62898 | 9.99917 | 50 ft | 1 kts | 245° |
| 2026-04-22 19:41 | 53.62880 | 9.99852 | 49 ft | 10 kts | 244° |
| 2026-04-22 19:42 | 53.62885 | 9.99735 | 49 ft | 11 kts | 321° |
| 2026-04-22 19:42 | 53.62927 | 9.99695 | 49 ft | 0 kts | 335° |
| 2026-04-22 19:43 | 53.62930 | 9.99692 | 49 ft | 4 kts | 335° |
| 2026-04-22 19:43 | 53.63167 | 9.99489 | 49 ft | 73 kts | 332° |
| 2026-04-22 19:43 | 53.63787 | 9.98952 | 48 ft | 127 kts | 332° |
| 2026-04-22 19:44 | 53.64688 | 9.98190 | 230 ft | 151 kts | 332° |
| 2026-04-22 19:44 | 53.65657 | 9.97400 | 709 ft | 165 kts | 332° |
| 2026-04-22 19:44 | 53.66744 | 9.96471 | 1043 ft | 173 kts | 331° |
| 2026-04-22 19:44 | 53.67698 | 9.95637 | 1347 ft | 139 kts | 331° |
| 2026-04-22 19:45 | 53.68544 | 9.94905 | 1518 ft | 134 kts | 331° |
| 2026-04-22 19:45 | 53.69406 | 9.94151 | 1763 ft | 154 kts | 331° |
| 2026-04-22 19:45 | 53.70441 | 9.93199 | 2202 ft | 181 kts | 324° |
| 2026-04-22 19:45 | 53.71269 | 9.91508 | 2771 ft | 202 kts | 294° |
| 2026-04-22 19:46 | 53.71424 | 9.89084 | 3549 ft | 217 kts | 260° |
| 2026-04-22 19:46 | 53.70939 | 9.86628 | 4413 ft | 231 kts | 253° |
| 2026-04-22 19:46 | 53.70384 | 9.83940 | 5019 ft | 254 kts | 254° |
| 2026-04-22 19:46 | 53.69790 | 9.80980 | 5730 ft | 270 kts | 254° |
| 2026-04-22 19:47 | 53.69192 | 9.77978 | 6696 ft | 275 kts | 254° |
| 2026-04-22 19:47 | 53.68576 | 9.74867 | 7566 ft | 281 kts | 254° |
| 2026-04-22 19:47 | 53.67955 | 9.71711 | 8476 ft | 285 kts | 254° |
| 2026-04-22 19:47 | 53.67330 | 9.68520 | 9384 ft | 290 kts | 254° |
| 2026-04-22 19:48 | 53.66698 | 9.65297 | 10034 ft | 296 kts | 254° |
| 2026-04-22 19:48 | 53.66041 | 9.61962 | 10272 ft | 297 kts | 254° |
| 2026-04-22 19:48 | 53.65324 | 9.58675 | 10444 ft | 306 kts | 247° |
| 2026-04-22 19:48 | 53.64206 | 9.55414 | 10632 ft | 336 kts | 236° |